createdAt,value
2022-11-30T00:01:44.892Z,31.30
2022-11-30T00:04:17.110Z,33.00
2022-11-30T00:06:50.256Z,36.40
2022-11-30T00:09:23.653Z,34.10
2022-11-30T00:11:56.842Z,34.40
2022-11-30T00:14:29.512Z,35.70
2022-11-30T00:17:05.713Z,34.40
2022-11-30T00:19:39.304Z,35.50
2022-11-30T00:22:11.860Z,34.40
2022-11-30T00:24:46.082Z,35.80
2022-11-30T00:27:18.903Z,35.70
2022-11-30T00:29:51.610Z,35.30
2022-11-30T00:32:25.755Z,33.70
2022-11-30T00:35:01.504Z,34.00
2022-11-30T00:37:34.068Z,33.90
2022-11-30T00:40:09.582Z,32.70
2022-11-30T00:42:43.849Z,32.10
2022-11-30T00:45:15.773Z,32.10
2022-11-30T00:47:48.612Z,32.60
2022-11-30T00:50:21.507Z,33.80
2022-11-30T00:52:53.361Z,33.80
2022-11-30T00:55:30.415Z,32.90
2022-11-30T00:58:08.625Z,33.00
2022-11-30T01:00:41.530Z,32.40
2022-11-30T01:03:15.341Z,36.70
2022-11-30T01:05:48.155Z,36.50
2022-11-30T01:08:24.568Z,34.10
2022-11-30T01:10:59.287Z,32.60
2022-11-30T01:13:31.267Z,34.60
2022-11-30T01:16:03.896Z,35.90
2022-11-30T01:18:38.919Z,32.20
2022-11-30T01:21:13.709Z,34.30
2022-11-30T01:23:46.959Z,33.70
2022-11-30T01:26:20.024Z,32.10
2022-11-30T01:28:55.189Z,31.60
2022-11-30T01:31:29.235Z,34.50
2022-11-30T01:34:02.262Z,33.90
2022-11-30T01:36:36.415Z,33.10
2022-11-30T01:39:11.721Z,30.90
2022-11-30T01:41:44.603Z,27.50
2022-11-30T01:44:51.996Z,29.40
2022-11-30T01:47:29.767Z,29.70
2022-11-30T01:50:08.733Z,29.40
2022-11-30T01:52:44.835Z,28.00
2022-11-30T01:55:21.788Z,27.80
2022-11-30T01:58:00.408Z,27.40
2022-11-30T02:00:35.667Z,28.00
2022-11-30T02:03:11.631Z,29.00
2022-11-30T02:05:45.845Z,31.70
2022-11-30T02:08:19.790Z,32.80
2022-11-30T02:10:57.888Z,33.10
2022-11-30T02:13:45.974Z,32.50
2022-11-30T02:16:24.887Z,33.30
2022-11-30T02:19:06.534Z,32.20
2022-11-30T02:21:46.130Z,31.90
2022-11-30T02:24:51.628Z,32.40
2022-11-30T02:27:35.477Z,31.80
2022-11-30T02:30:14.202Z,31.80
2022-11-30T02:32:53.432Z,33.10
2022-11-30T02:35:28.937Z,32.70
2022-11-30T02:38:07.582Z,32.20
2022-11-30T02:40:43.235Z,32.20
2022-11-30T02:43:17.036Z,31.10
2022-11-30T02:45:52.155Z,29.70
2022-11-30T02:48:32.413Z,29.60
2022-11-30T02:51:07.550Z,28.20
2022-11-30T02:53:42.121Z,28.40
2022-11-30T02:56:14.789Z,29.40
2022-11-30T02:58:47.756Z,30.80
2022-11-30T03:01:20.931Z,32.40
2022-11-30T03:03:53.977Z,32.00
2022-11-30T03:06:26.515Z,31.80
2022-11-30T03:08:58.514Z,33.10
2022-11-30T03:11:31.638Z,33.00
2022-11-30T03:14:04.740Z,33.10
2022-11-30T03:16:36.629Z,33.90
2022-11-30T03:19:10.543Z,32.40
2022-11-30T03:21:46.213Z,32.60
2022-11-30T03:24:19.484Z,32.90
2022-11-30T03:26:53.894Z,32.00
2022-11-30T03:29:25.871Z,31.30
2022-11-30T03:31:57.983Z,33.20
2022-11-30T03:34:32.180Z,32.80
2022-11-30T03:37:05.823Z,32.40
2022-11-30T03:39:41.237Z,31.50
2022-11-30T03:42:13.880Z,31.50
2022-11-30T03:44:50.435Z,29.20
2022-11-30T03:47:22.883Z,30.30
2022-11-30T03:49:56.453Z,31.30
2022-11-30T03:52:30.636Z,32.00
2022-11-30T03:55:04.954Z,31.70
2022-11-30T03:57:37.211Z,30.00
2022-11-30T04:00:13.263Z,31.20
2022-11-30T04:02:47.218Z,32.20
2022-11-30T04:05:23.760Z,32.10
2022-11-30T04:08:00.303Z,33.10
2022-11-30T04:10:34.206Z,34.20
2022-11-30T04:13:07.970Z,34.70
2022-11-30T04:15:42.199Z,39.00
2022-11-30T04:18:14.552Z,37.90
2022-11-30T04:20:48.039Z,37.90
2022-11-30T04:23:22.440Z,37.20
2022-11-30T04:25:56.289Z,32.10
2022-11-30T04:28:28.715Z,34.40
2022-11-30T04:31:04.502Z,30.90
2022-11-30T04:33:37.466Z,33.00
2022-11-30T04:36:19.754Z,32.80
2022-11-30T04:38:54.841Z,37.20
2022-11-30T04:41:27.405Z,34.60
2022-11-30T04:44:04.791Z,32.00
2022-11-30T04:46:40.534Z,33.70
2022-11-30T04:49:12.949Z,32.70
2022-11-30T04:51:46.931Z,33.50
2022-11-30T04:54:21.362Z,33.90
2022-11-30T04:56:54.041Z,32.80
2022-11-30T04:59:29.787Z,33.20
2022-11-30T05:02:04.880Z,33.20
2022-11-30T05:04:40.373Z,30.80
2022-11-30T05:07:13.271Z,31.80
2022-11-30T05:09:47.090Z,32.80
2022-11-30T05:12:21.063Z,31.70
2022-11-30T05:14:54.942Z,34.10
2022-11-30T05:17:27.784Z,34.00
2022-11-30T05:20:00.343Z,34.50
2022-11-30T05:22:34.956Z,45.30
2022-11-30T05:25:08.691Z,38.60
2022-11-30T05:27:40.899Z,44.50
2022-11-30T05:30:14.874Z,45.00
2022-11-30T05:32:48.938Z,43.40
2022-11-30T05:35:23.680Z,47.00
2022-11-30T05:37:56.497Z,43.30
2022-11-30T05:40:32.625Z,53.10
2022-11-30T05:43:06.831Z,37.30
2022-11-30T05:45:38.878Z,33.20
2022-11-30T05:48:12.711Z,31.50
2022-11-30T05:50:44.720Z,31.50
2022-11-30T05:53:17.082Z,32.30
2022-11-30T05:55:52.705Z,31.20
2022-11-30T05:58:28.190Z,30.00
2022-11-30T06:01:03.107Z,30.50
2022-11-30T06:03:36.621Z,30.10
2022-11-30T06:06:09.637Z,30.60
2022-11-30T06:08:44.300Z,30.40
2022-11-30T06:11:16.432Z,30.40
2022-11-30T06:13:52.017Z,29.20
2022-11-30T06:16:25.731Z,32.10
2022-11-30T06:18:58.522Z,27.70
2022-11-30T06:21:33.325Z,31.20
2022-11-30T06:24:06.287Z,32.70
2022-11-30T06:26:40.071Z,33.10
2022-11-30T06:29:13.338Z,31.40
2022-11-30T06:31:46.303Z,32.20
2022-11-30T06:34:18.889Z,32.80
2022-11-30T06:36:51.615Z,32.50
2022-11-30T06:39:50.039Z,31.60
2022-11-30T06:42:22.397Z,32.10
2022-11-30T06:44:57.194Z,33.60
2022-11-30T06:47:32.704Z,31.90
2022-11-30T06:50:09.907Z,30.50
2022-11-30T06:52:41.897Z,29.10
2022-11-30T06:55:14.413Z,30.50
2022-11-30T06:57:46.671Z,29.50
2022-11-30T07:00:21.971Z,29.80
2022-11-30T07:02:55.315Z,29.40
2022-11-30T07:05:28.650Z,28.40
2022-11-30T07:08:04.635Z,27.80
2022-11-30T07:10:40.590Z,29.10
2022-11-30T07:13:15.434Z,30.10
2022-11-30T07:15:47.727Z,33.40
2022-11-30T07:18:19.731Z,32.20
2022-11-30T07:20:51.610Z,29.30
2022-11-30T07:23:56.706Z,39.10
2022-11-30T07:26:31.947Z,30.40
2022-11-30T07:29:06.359Z,28.20
2022-11-30T07:31:39.763Z,29.30
2022-11-30T07:34:13.904Z,33.50
2022-11-30T07:36:46.644Z,35.00
2022-11-30T07:39:20.904Z,35.10
2022-11-30T07:41:53.862Z,43.00
2022-11-30T07:44:27.945Z,37.00
2022-11-30T07:47:02.528Z,45.00
2022-11-30T07:49:35.553Z,39.70
2022-11-30T07:52:08.377Z,44.60
2022-11-30T07:54:40.472Z,40.80
2022-11-30T07:57:13.149Z,43.10
2022-11-30T07:59:46.605Z,57.00
2022-11-30T08:02:19.211Z,44.60
2022-11-30T08:05:00.145Z,35.80
2022-11-30T08:07:34.022Z,37.70
2022-11-30T08:10:09.600Z,36.10
2022-11-30T08:12:42.848Z,34.70
2022-11-30T08:15:20.317Z,31.70
2022-11-30T08:17:57.486Z,32.40
2022-11-30T08:20:34.120Z,35.00
2022-11-30T08:23:08.000Z,37.00
2022-11-30T08:25:44.948Z,33.50
2022-11-30T08:28:18.742Z,35.30
2022-11-30T08:30:55.795Z,39.20
2022-11-30T08:33:31.117Z,36.50
2022-11-30T08:36:10.604Z,38.50
2022-11-30T08:38:44.942Z,36.90
2022-11-30T08:41:21.362Z,38.00
2022-11-30T08:43:58.117Z,37.60
2022-11-30T08:49:26.069Z,33.40
2022-11-30T08:54:53.311Z,32.20
2022-11-30T08:57:29.692Z,29.20
2022-11-30T09:00:04.341Z,27.80
2022-11-30T09:02:36.252Z,30.60
2022-11-30T09:05:11.110Z,31.60
2022-11-30T09:07:45.932Z,31.30
2022-11-30T09:10:21.132Z,33.90
2022-11-30T09:12:55.067Z,39.20
2022-11-30T09:15:29.752Z,33.30
2022-11-30T09:18:02.645Z,31.30
2022-11-30T09:20:36.070Z,29.00
2022-11-30T09:23:10.745Z,29.10
2022-11-30T09:25:44.449Z,26.30
2022-11-30T09:28:16.580Z,26.40
2022-11-30T09:30:49.463Z,28.00
2022-11-30T09:33:25.349Z,31.90
2022-11-30T09:36:04.170Z,23.30
2022-11-30T09:38:36.386Z,26.70
2022-11-30T09:41:17.603Z,26.20
2022-11-30T09:43:53.700Z,29.00
2022-11-30T09:46:30.427Z,24.70
2022-11-30T09:49:05.442Z,24.20
2022-11-30T09:51:44.471Z,26.70
2022-11-30T09:54:18.388Z,24.60
2022-11-30T09:56:50.887Z,25.60
2022-11-30T09:59:25.902Z,25.80
2022-11-30T10:01:59.750Z,26.40
2022-11-30T10:04:36.373Z,25.40
2022-11-30T10:07:15.752Z,28.00
2022-11-30T10:10:09.330Z,28.20
2022-11-30T10:12:49.188Z,31.50
2022-11-30T10:15:33.987Z,27.80
2022-11-30T10:18:12.556Z,28.90
2022-11-30T10:21:06.043Z,29.30
2022-11-30T10:23:50.635Z,31.90
2022-11-30T10:26:28.057Z,32.70
2022-11-30T10:29:08.251Z,34.50
2022-11-30T10:31:41.706Z,32.90
2022-11-30T10:34:24.163Z,30.70
2022-11-30T10:37:04.172Z,28.60
2022-11-30T10:39:40.466Z,28.60
2022-11-30T10:42:15.281Z,28.60
2022-11-30T10:45:00.170Z,29.50
2022-11-30T10:47:39.062Z,26.80
2022-11-30T10:50:17.433Z,28.70
2022-11-30T10:52:53.147Z,25.00
2022-11-30T10:55:31.120Z,27.20
2022-11-30T10:58:06.628Z,27.40
2022-11-30T11:00:40.002Z,26.20
2022-11-30T11:03:27.096Z,28.10
2022-11-30T11:06:21.541Z,33.30
2022-11-30T11:08:54.974Z,26.70
2022-11-30T11:11:37.359Z,27.90
2022-11-30T11:14:22.070Z,27.10
2022-11-30T11:16:57.411Z,27.30
2022-11-30T11:19:35.350Z,30.70
2022-11-30T11:22:15.667Z,25.50
2022-11-30T11:24:48.068Z,27.00
2022-11-30T11:27:29.855Z,28.30
2022-11-30T11:30:05.851Z,27.90
2022-11-30T11:32:40.247Z,31.40
2022-11-30T11:35:34.720Z,35.80
2022-11-30T11:38:21.709Z,29.70
2022-11-30T11:41:06.831Z,28.80
2022-11-30T11:44:01.070Z,27.10
2022-11-30T11:46:56.431Z,23.00
2022-11-30T11:49:33.833Z,25.80
2022-11-30T11:52:23.654Z,26.00
2022-11-30T11:55:01.268Z,27.40
2022-11-30T11:57:39.545Z,23.30
2022-11-30T12:00:21.733Z,27.20
2022-11-30T12:03:00.008Z,27.90
2022-11-30T12:05:35.547Z,26.30
2022-11-30T12:08:15.987Z,25.20
2022-11-30T12:10:55.645Z,28.60
2022-11-30T12:13:37.988Z,30.50
2022-11-30T12:16:27.610Z,26.40
2022-11-30T12:19:05.477Z,24.40
2022-11-30T12:21:54.436Z,25.00
2022-11-30T12:24:43.693Z,24.70
2022-11-30T12:27:22.353Z,22.00
2022-11-30T12:30:06.560Z,22.30
2022-11-30T12:32:51.161Z,23.10
2022-11-30T12:35:35.596Z,24.70
2022-11-30T12:38:19.540Z,34.80
2022-11-30T12:41:03.252Z,25.40
2022-11-30T12:43:44.798Z,26.20
2022-11-30T12:46:21.153Z,25.60
2022-11-30T12:49:08.174Z,25.10
2022-11-30T12:51:49.457Z,27.30
2022-11-30T12:54:27.716Z,30.90
2022-11-30T12:57:10.902Z,28.60
2022-11-30T12:59:49.965Z,28.40
2022-11-30T13:02:40.094Z,26.10
2022-11-30T13:05:15.870Z,27.10
2022-11-30T13:07:53.879Z,24.80
2022-11-30T13:10:33.495Z,24.40
2022-11-30T13:13:10.170Z,29.80
2022-11-30T13:15:45.514Z,29.10
2022-11-30T13:18:23.817Z,30.00
2022-11-30T13:21:06.578Z,26.20
2022-11-30T13:23:46.292Z,24.50
2022-11-30T13:26:28.234Z,25.00
2022-11-30T13:29:16.667Z,26.20
2022-11-30T13:31:58.035Z,28.80
2022-11-30T13:34:34.285Z,27.30
2022-11-30T13:37:10.605Z,26.00
2022-11-30T13:39:51.658Z,26.80
2022-11-30T13:42:48.892Z,31.80
2022-11-30T13:45:36.793Z,28.90
2022-11-30T13:48:32.462Z,31.30
2022-11-30T13:51:09.377Z,29.30
2022-11-30T13:53:45.622Z,30.40
2022-11-30T13:56:39.102Z,33.90
2022-11-30T13:59:42.076Z,29.60
2022-11-30T14:02:54.766Z,37.30
2022-11-30T14:05:39.680Z,31.20
2022-11-30T14:08:37.818Z,34.80
2022-11-30T14:11:43.461Z,28.20
2022-11-30T14:14:48.711Z,26.00
2022-11-30T14:17:27.982Z,28.00
2022-11-30T14:20:11.732Z,28.10
2022-11-30T14:22:44.770Z,27.70
2022-11-30T14:25:18.258Z,31.50
2022-11-30T14:27:54.161Z,30.90
2022-11-30T14:30:34.815Z,29.40
2022-11-30T14:33:18.016Z,30.00
2022-11-30T14:35:55.356Z,30.20
2022-11-30T14:38:29.611Z,31.10
2022-11-30T14:41:02.558Z,33.40
2022-11-30T14:43:34.914Z,34.80
2022-11-30T14:46:15.660Z,36.50
2022-11-30T14:48:48.941Z,53.30
2022-11-30T14:51:21.072Z,43.70
2022-11-30T14:54:01.166Z,33.90
2022-11-30T14:56:38.841Z,37.30
2022-11-30T14:59:20.365Z,32.70
2022-11-30T15:01:58.757Z,29.50
2022-11-30T15:04:33.064Z,35.50
2022-11-30T15:07:05.227Z,37.20
2022-11-30T15:09:42.262Z,36.90
2022-11-30T15:12:22.781Z,32.10
2022-11-30T15:15:18.317Z,35.80
2022-11-30T15:17:57.950Z,29.70
2022-11-30T15:20:32.880Z,31.20
2022-11-30T15:23:05.742Z,32.00
2022-11-30T15:25:43.786Z,29.80
2022-11-30T15:28:19.835Z,28.90
2022-11-30T15:30:56.864Z,29.40
2022-11-30T15:33:34.749Z,29.40
2022-11-30T15:36:27.848Z,30.70
2022-11-30T15:39:03.818Z,29.30
2022-11-30T15:41:39.792Z,32.10
2022-11-30T15:44:26.188Z,31.90
2022-11-30T15:47:01.448Z,30.70
2022-11-30T15:49:36.472Z,30.80
2022-11-30T15:52:18.600Z,33.20
2022-11-30T15:54:52.997Z,33.50
2022-11-30T15:57:28.383Z,33.20
2022-11-30T16:00:10.345Z,32.70
2022-11-30T16:02:43.694Z,34.40
2022-11-30T16:05:28.145Z,32.50
2022-11-30T16:08:03.414Z,32.60
2022-11-30T16:10:39.152Z,32.30
2022-11-30T16:13:16.792Z,32.60
2022-11-30T16:15:50.467Z,35.20
2022-11-30T16:18:26.762Z,32.10
2022-11-30T16:21:01.506Z,33.70
2022-11-30T16:23:38.411Z,34.50
2022-11-30T16:26:36.032Z,34.00
2022-11-30T16:29:06.666Z,34.10
2022-11-30T16:31:39.222Z,34.40
2022-11-30T16:34:14.775Z,34.90
2022-11-30T16:36:48.887Z,35.80
2022-11-30T16:39:21.751Z,36.30
2022-11-30T16:41:55.174Z,36.70
2022-11-30T16:44:29.931Z,37.20
2022-11-30T16:47:04.250Z,35.10
2022-11-30T16:49:36.624Z,37.00
2022-11-30T16:52:10.961Z,36.20
2022-11-30T16:54:49.379Z,37.20
2022-11-30T16:57:22.408Z,35.20
2022-11-30T16:59:55.085Z,35.20
2022-11-30T17:02:29.791Z,34.40
2022-11-30T17:05:06.513Z,36.80
2022-11-30T17:07:38.951Z,36.10
2022-11-30T17:10:15.022Z,34.20
2022-11-30T17:12:47.762Z,35.00
2022-11-30T17:15:25.374Z,35.60
2022-11-30T17:18:01.428Z,37.60
2022-11-30T17:20:34.161Z,35.60
2022-11-30T17:23:06.699Z,33.40
2022-11-30T17:25:39.991Z,35.10
2022-11-30T17:28:13.436Z,34.50
2022-11-30T17:30:46.599Z,34.00
2022-11-30T17:33:22.787Z,32.50
2022-11-30T17:35:59.110Z,34.30
2022-11-30T17:38:33.681Z,33.90
2022-11-30T17:41:18.329Z,33.70
2022-11-30T17:43:56.032Z,34.10
2022-11-30T17:46:29.651Z,36.50
2022-11-30T17:49:04.846Z,35.80
2022-11-30T17:51:37.568Z,36.60
2022-11-30T17:54:11.953Z,36.00
2022-11-30T17:56:45.627Z,36.50
2022-11-30T17:59:19.351Z,37.00
2022-11-30T18:01:54.988Z,36.60
2022-11-30T18:04:28.269Z,38.00
2022-11-30T18:07:02.753Z,36.90
2022-11-30T18:09:40.795Z,34.70
2022-11-30T18:12:18.179Z,38.50
2022-11-30T18:14:52.999Z,33.10
2022-11-30T18:17:28.467Z,31.50
2022-11-30T18:20:00.999Z,29.40
2022-11-30T18:22:35.886Z,26.90
2022-11-30T18:25:10.178Z,31.00
2022-11-30T18:27:42.457Z,26.80
2022-11-30T18:30:15.591Z,24.60
2022-11-30T18:32:48.195Z,26.60
2022-11-30T18:35:20.197Z,26.60
2022-11-30T18:37:52.655Z,26.80
2022-11-30T18:40:24.600Z,28.80
2022-11-30T18:42:56.770Z,26.70
2022-11-30T18:45:29.399Z,27.90
2022-11-30T18:48:01.468Z,26.40
2022-11-30T18:50:33.906Z,27.50
2022-11-30T18:53:07.640Z,27.70
2022-11-30T18:55:39.527Z,27.20
2022-11-30T18:58:11.862Z,24.80
2022-11-30T19:00:43.734Z,25.70
2022-11-30T19:03:15.861Z,26.40
2022-11-30T19:05:48.413Z,25.20
2022-11-30T19:08:20.804Z,26.20
2022-11-30T19:10:58.527Z,24.40
2022-11-30T19:13:32.884Z,24.90
2022-11-30T19:16:05.983Z,23.50
2022-11-30T19:18:37.839Z,24.40
2022-11-30T19:21:14.000Z,24.50
2022-11-30T19:23:46.102Z,25.90
2022-11-30T19:26:18.452Z,24.50
2022-11-30T19:28:50.294Z,26.40
2022-11-30T19:31:22.714Z,26.10
2022-11-30T19:33:55.472Z,26.30
2022-11-30T19:36:29.114Z,26.70
2022-11-30T19:39:01.667Z,28.10
2022-11-30T19:41:33.802Z,28.40
2022-11-30T19:44:07.274Z,28.00
2022-11-30T19:46:40.866Z,28.90
2022-11-30T19:49:13.385Z,30.10
2022-11-30T19:51:45.400Z,28.10
2022-11-30T19:54:17.174Z,27.60
2022-11-30T19:56:49.015Z,26.60
2022-11-30T19:59:21.382Z,25.50
2022-11-30T20:01:53.376Z,27.10
2022-11-30T20:04:27.535Z,27.40
2022-11-30T20:06:59.296Z,27.00
2022-11-30T20:09:31.220Z,29.90
2022-11-30T20:12:03.819Z,30.30
2022-11-30T20:14:36.858Z,30.40
2022-11-30T20:17:08.736Z,29.10
2022-11-30T20:19:40.657Z,28.20
2022-11-30T20:22:12.640Z,27.80
2022-11-30T20:24:44.593Z,27.30
2022-11-30T20:27:21.970Z,26.60
2022-11-30T20:29:54.109Z,28.80
2022-11-30T20:32:25.987Z,30.00
2022-11-30T20:34:57.991Z,28.70
2022-11-30T20:37:29.778Z,26.90
2022-11-30T20:40:02.804Z,27.60
2022-11-30T20:42:34.679Z,30.60
2022-11-30T20:45:07.664Z,29.40
2022-11-30T20:47:39.476Z,29.60
2022-11-30T20:50:13.517Z,28.10
2022-11-30T20:52:45.602Z,23.70
2022-11-30T20:55:17.687Z,23.70
2022-11-30T20:57:50.559Z,24.30
2022-11-30T21:00:22.979Z,24.80
2022-11-30T21:02:54.874Z,21.80
2022-11-30T21:05:26.986Z,22.90
2022-11-30T21:07:58.759Z,23.40
2022-11-30T21:10:30.531Z,23.00
2022-11-30T21:13:02.280Z,24.60
2022-11-30T21:15:34.303Z,25.80
2022-11-30T21:18:08.456Z,22.50
2022-11-30T21:20:40.425Z,24.90
2022-11-30T21:23:12.578Z,25.60
2022-11-30T21:25:45.723Z,25.60
2022-11-30T21:28:18.619Z,22.40
2022-11-30T21:30:50.656Z,22.60
2022-11-30T21:33:22.714Z,24.10
2022-11-30T21:35:54.653Z,24.20
2022-11-30T21:38:26.807Z,23.60
2022-11-30T21:41:00.787Z,23.10
2022-11-30T21:43:36.038Z,22.90
2022-11-30T21:46:09.446Z,22.80
2022-11-30T21:48:43.234Z,23.50
2022-11-30T21:51:17.064Z,22.40
2022-11-30T21:53:50.915Z,22.60
2022-11-30T21:56:24.033Z,24.80
2022-11-30T21:58:56.271Z,26.00
2022-11-30T22:01:29.833Z,24.40
2022-11-30T22:04:03.254Z,22.40
2022-11-30T22:06:36.776Z,23.10
2022-11-30T22:09:11.589Z,22.50
2022-11-30T22:11:45.083Z,22.10
2022-11-30T22:14:17.970Z,24.40
2022-11-30T22:16:50.124Z,21.80
2022-11-30T22:19:22.131Z,22.20
2022-11-30T22:21:54.091Z,23.40
2022-11-30T22:24:26.323Z,22.30
2022-11-30T22:26:58.153Z,19.70
2022-11-30T22:29:30.108Z,20.70
2022-11-30T22:32:01.995Z,21.00
2022-11-30T22:34:33.880Z,21.60
2022-11-30T22:37:07.758Z,20.60
2022-11-30T22:39:39.758Z,19.20
2022-11-30T22:42:13.756Z,19.90
2022-11-30T22:44:46.788Z,19.00
2022-11-30T22:47:19.063Z,19.00
2022-11-30T22:49:51.563Z,18.40
2022-11-30T22:52:42.289Z,21.50
2022-11-30T22:55:16.068Z,21.80
2022-11-30T22:57:48.082Z,21.80
2022-11-30T23:00:21.344Z,22.20
2022-11-30T23:02:53.166Z,21.30
2022-11-30T23:05:25.019Z,21.30
2022-11-30T23:07:57.010Z,18.20
2022-11-30T23:10:28.814Z,19.40
2022-11-30T23:13:00.983Z,20.30
2022-11-30T23:15:33.656Z,21.70
2022-11-30T23:18:05.680Z,21.70
2022-11-30T23:20:38.475Z,21.30
2022-11-30T23:23:10.333Z,19.30
2022-11-30T23:25:42.719Z,16.90
2022-11-30T23:28:14.689Z,18.20
2022-11-30T23:30:46.540Z,18.10
2022-11-30T23:33:18.625Z,17.50
2022-11-30T23:35:50.440Z,17.90
2022-11-30T23:38:22.581Z,19.40
2022-11-30T23:40:54.379Z,15.70
2022-11-30T23:43:26.391Z,17.40
2022-11-30T23:45:58.367Z,17.30
2022-11-30T23:48:30.534Z,16.60
2022-11-30T23:51:03.081Z,15.60
2022-11-30T23:53:35.767Z,17.40
2022-11-30T23:56:09.915Z,18.50
2022-11-30T23:58:41.972Z,23.50
